Solon, Ohio
Current Conditions -  °F | °C
As of 2:45 PM on Sunday 28 Dec 2014 (Local Time) from KCGF Reporting Station
Overcast Overcast  
Wind Chill: 31°   Ceiling: 1000
Heat Index: 39°   Visibility: 20mi
Dew Point: 36°   Wind: 14mph
Humidity: 87%   Direction: 290°WNW
Pressure: 30.08"   Gusts: NA
Location:  41.39°N, 81.43°W
Report Text: KCGF 281945Z 29012KT 20SM BKN010 OVC020 04/02 A3008
Loading
Personal Weather Stations






























Interactive Weather Map New forecast layout! Learn more

10-Day Weather Forecast

Advertisements
Track Severe Weather on mobile